Time;durP1;ratioP1;P1;durP2;ratioP2;P2;SDS_P1;SDS_P2;PMS_P1;PMS_P2;Temp;Humidity;BMP_temperature;BMP_pressure;BME280_temperature;BME280_humidity;BME280_pressure;Samples;Min_cycle;Max_cycle;Signal;HPM_P1;HPM_P2
2022/10/23 00:02:33;;;;;;;1999.90;999.90;;;14.30;99.90;;;;;;6754725;87;20193;-77
2022/10/23 00:12:34;;;;;;;1999.90;999.90;;;14.30;99.90;;;;;;6752792;87;20684;-77
2022/10/23 00:22:35;;;;;;;1999.90;999.90;;;14.40;99.90;;;;;;6753373;88;20210;-77
2022/10/23 00:32:36;;;;;;;1999.90;999.90;;;14.40;99.90;;;;;;6750128;88;20852;-77
2022/10/23 00:42:36;;;;;;;1999.90;999.90;;;14.10;99.90;;;;;;6757063;87;20211;-77
2022/10/23 00:52:43;;;;;;;1999.90;999.90;;;14.10;99.90;;;;;;6751227;88;20283;-77
2022/10/23 01:02:44;;;;;;;1999.90;999.90;;;13.80;99.90;;;;;;6752479;87;20610;-77
2022/10/23 01:13:01;;;;;;;1999.90;999.90;;;13.50;99.90;;;;;;6749111;87;20222;-77
2022/10/23 01:23:29;;;;;;;1999.90;999.90;;;13.30;99.90;;;;;;6741565;88;20715;-77
2022/10/23 01:33:43;;;;;;;1999.90;999.90;;;13.10;99.90;;;;;;6745843;87;20195;-77
2022/10/23 01:43:51;;;;;;;1999.90;999.90;;;13.00;99.90;;;;;;6749849;87;20189;-77
2022/10/23 01:53:57;;;;;;;1999.90;999.90;;;13.10;99.90;;;;;;6749684;88;20716;-77
2022/10/23 02:04:01;;;;;;;1999.90;999.90;;;13.00;99.90;;;;;;6751523;87;20372;-77
2022/10/23 02:14:12;;;;;;;1999.90;999.90;;;12.90;99.90;;;;;;6749427;87;20215;-77
2022/10/23 02:24:17;;;;;;;1999.90;999.90;;;12.80;99.90;;;;;;6746340;87;20188;-77
2022/10/23 02:34:18;;;;;;;1999.90;999.90;;;12.60;99.90;;;;;;6746824;87;20228;-77
2022/10/23 02:44:43;;;;;;;1999.90;999.90;;;12.60;99.90;;;;;;6753209;87;20176;-77
2022/10/23 02:54:55;;;;;;;1999.90;999.90;;;12.50;99.90;;;;;;6749492;87;20209;-77
2022/10/23 03:04:59;;;;;;;1999.90;999.90;;;12.40;99.90;;;;;;6753494;87;20655;-77
2022/10/23 03:14:59;;;;;;;1999.90;999.90;;;12.40;99.90;;;;;;6750807;87;20230;-76
2022/10/23 03:25:00;;;;;;;1999.90;999.90;;;12.40;99.90;;;;;;6746395;87;20698;-76
2022/10/23 03:35:01;;;;;;;1999.90;999.90;;;12.50;99.90;;;;;;6747918;87;20221;-77
2022/10/23 03:45:01;;;;;;;1999.90;999.90;;;12.40;99.90;;;;;;6755387;87;20204;-77
2022/10/23 03:55:03;;;;;;;1999.90;999.90;;;12.40;99.90;;;;;;6751990;87;20642;-77
2022/10/23 04:05:04;;;;;;;1999.90;999.90;;;12.40;99.90;;;;;;6753199;87;20186;-77
2022/10/23 04:15:05;;;;;;;1999.90;999.90;;;12.50;99.90;;;;;;6747519;76;20711;-77
2022/10/23 04:25:05;;;;;;;1999.90;999.90;;;12.70;99.90;;;;;;6742487;88;20220;-77
2022/10/23 04:35:06;;;;;;;1999.90;999.90;;;12.80;99.90;;;;;;6733465;88;20648;-76
2022/10/23 04:45:07;;;;;;;1999.90;999.90;;;13.00;99.90;;;;;;6741690;88;20186;-78
2022/10/23 04:55:08;;;;;;;1999.90;999.90;;;13.10;99.90;;;;;;6736020;88;20230;-78
2022/10/23 05:05:09;;;;;;;1999.90;999.90;;;13.20;99.90;;;;;;6742994;88;20210;-78
2022/10/23 05:15:10;;;;;;;1999.90;999.90;;;13.10;99.90;;;;;;6734763;88;20230;-77
2022/10/23 05:25:12;;;;;;;1999.90;999.90;;;13.20;99.90;;;;;;6730667;88;20189;-77
2022/10/23 05:35:18;;;;;;;1999.90;999.90;;;13.30;99.90;;;;;;6736933;88;20170;-77
2022/10/23 05:45:18;;;;;;;1999.90;999.90;;;13.20;99.90;;;;;;6735259;88;20174;-77
2022/10/23 05:55:19;;;;;;;1999.90;999.90;;;13.30;99.90;;;;;;6732925;88;20190;-77
2022/10/23 06:05:19;;;;;;;1999.90;999.90;;;13.20;99.90;;;;;;6733934;88;20228;-77
2022/10/23 06:15:20;;;;;;;1999.90;999.90;;;13.20;99.90;;;;;;6736796;88;20253;-77
2022/10/23 06:25:21;;;;;;;1999.90;999.90;;;13.20;99.90;;;;;;6731696;88;20187;-77
2022/10/23 06:35:21;;;;;;;1999.90;999.90;;;13.10;99.90;;;;;;6734374;88;20208;-77
2022/10/23 06:45:22;;;;;;;1999.90;999.90;;;13.10;99.90;;;;;;6736114;88;20633;-78
2022/10/23 06:55:22;;;;;;;1999.90;999.90;;;13.30;99.90;;;;;;6741747;88;20196;-79
2022/10/23 07:05:23;;;;;;;1999.90;999.90;;;13.40;99.90;;;;;;6735178;88;20197;-78
2022/10/23 07:15:23;;;;;;;1999.90;999.90;;;13.50;99.90;;;;;;6736656;88;20189;-78
2022/10/23 07:25:25;;;;;;;1999.90;999.90;;;13.70;99.90;;;;;;6743354;88;20211;-78
2022/10/23 07:35:26;;;;;;;1999.90;999.90;;;13.90;99.90;;;;;;6749616;88;20199;-78
2022/10/23 07:45:26;;;;;;;1999.90;999.90;;;14.30;99.90;;;;;;6739419;88;20235;-79
2022/10/23 07:55:26;;;;;;;1999.90;999.90;;;14.60;99.90;;;;;;6735636;88;20624;-78
2022/10/23 08:05:27;;;;;;;1999.90;999.90;;;14.80;99.90;;;;;;6732386;88;20344;-81
2022/10/23 08:15:27;;;;;;;1999.90;999.90;;;15.30;99.90;;;;;;6738327;88;20247;-77
2022/10/23 08:25:28;;;;;;;1999.90;999.90;;;15.50;99.90;;;;;;6732793;88;20234;-77
2022/10/23 08:35:29;;;;;;;1999.90;999.90;;;15.60;99.90;;;;;;6731798;88;20240;-77
2022/10/23 08:45:41;;;;;;;1999.90;999.90;;;16.30;99.90;;;;;;6735466;88;20202;-77
2022/10/23 08:55:46;;;;;;;1999.90;999.90;;;16.80;99.90;;;;;;6736535;88;20912;-79
2022/10/23 09:06:07;;;;;;;;;;;17.20;99.90;;;;;;6734262;88;20181;-78
2022/10/23 09:16:27;;;;;;;1999.90;999.90;;;17.50;99.90;;;;;;6734150;88;20129;-78
2022/10/23 09:26:28;;;;;;;1999.90;999.90;;;18.20;99.90;;;;;;6737204;88;20237;-78
2022/10/23 09:36:28;;;;;;;1999.90;999.90;;;17.80;99.90;;;;;;6730691;88;20212;-79
2022/10/23 09:46:52;;;;;;;1999.90;999.90;;;17.20;99.90;;;;;;6731771;88;20182;-78
2022/10/23 09:56:54;;;;;;;1999.90;999.90;;;17.10;99.90;;;;;;6730988;88;20540;-79
2022/10/23 10:07:00;;;;;;;1999.90;999.90;;;17.10;99.90;;;;;;6733110;88;20209;-79
2022/10/23 10:17:18;;;;;;;1999.90;999.90;;;17.10;99.90;;;;;;6738630;88;20193;-79
2022/10/23 10:27:58;;;;;;;1999.90;999.90;;;17.00;99.90;;;;;;6741570;88;20196;-79
2022/10/23 10:38:22;;;;;;;1999.90;999.90;;;17.00;99.90;;;;;;6738134;88;20189;-78
2022/10/23 10:48:35;;;;;;;1999.90;999.90;;;16.90;99.90;;;;;;6739543;88;20321;-78
2022/10/23 10:58:54;;;;;;;1999.90;999.90;;;16.80;99.90;;;;;;6734689;88;20255;-78
2022/10/23 11:08:55;;;;;;;1999.90;999.90;;;16.60;99.90;;;;;;6738313;88;20308;-79
2022/10/23 11:19:11;;;;;;;1999.90;999.90;;;16.60;99.90;;;;;;6742321;88;20192;-78
2022/10/23 11:29:26;;;;;;;1999.90;999.90;;;16.60;99.90;;;;;;6740250;88;20299;-82
2022/10/23 11:39:32;;;;;;;1999.90;999.90;;;16.90;99.90;;;;;;6742035;88;20182;-80
2022/10/23 11:49:32;;;;;;;1999.90;999.90;;;17.40;99.90;;;;;;6752914;88;20204;-80
2022/10/23 11:59:55;;;;;;;1999.90;999.90;;;17.70;99.90;;;;;;6745383;88;20193;-80
2022/10/23 12:10:16;;;;;;;1999.90;999.90;;;17.60;99.90;;;;;;6747921;88;20656;-81
2022/10/23 12:20:24;;;;;;;1999.90;999.90;;;17.90;99.90;;;;;;6753987;88;20692;-80
2022/10/23 12:30:52;;;;;;;1999.90;999.90;;;17.90;99.90;;;;;;6747247;88;20203;-81
2022/10/23 12:41:13;;;;;;;1999.90;999.90;;;18.20;99.90;;;;;;6746738;88;20201;-81
2022/10/23 12:51:21;;;;;;;1999.90;999.90;;;18.30;99.90;;;;;;6752040;88;20178;-81
2022/10/23 13:01:28;;;;;;;1999.90;999.90;;;18.50;99.90;;;;;;6733864;88;20348;-78
2022/10/23 13:11:29;;;;;;;1999.90;999.90;;;18.40;99.90;;;;;;6730880;88;20212;-83
2022/10/23 13:21:31;;;;;;;1999.90;999.90;;;18.40;99.90;;;;;;6741801;88;20189;-82
2022/10/23 13:31:32;;;;;;;1999.90;999.90;;;18.60;99.90;;;;;;6760791;88;20216;-85
2022/10/23 13:41:44;;;;;;;1999.90;999.90;;;18.70;99.90;;;;;;6746577;87;20266;-80
2022/10/23 13:51:53;;;;;;;1999.90;999.90;;;18.80;99.90;;;;;;6742031;88;20145;-80
2022/10/23 14:01:54;;;;;;;1999.90;999.90;;;18.80;99.90;;;;;;6737775;88;20190;-80
2022/10/23 14:11:54;;;;;;;1999.90;999.90;;;18.80;99.90;;;;;;6745816;87;20206;-80
2022/10/23 14:21:55;;;;;;;1999.90;999.90;;;18.90;99.90;;;;;;6730754;88;20247;-81
2022/10/23 14:31:55;;;;;;;1999.90;999.90;;;18.90;99.90;;;;;;6733130;88;20188;-81
2022/10/23 14:41:56;;;;;;;1999.90;999.90;;;18.80;99.90;;;;;;6735588;88;20328;-79
2022/10/23 14:51:57;;;;;;;1999.90;999.90;;;18.70;99.90;;;;;;6737428;88;20196;-81
2022/10/23 15:01:57;;;;;;;1999.90;999.90;;;18.70;99.90;;;;;;6731933;88;20181;-81
2022/10/23 15:11:58;;;;;;;1999.90;999.90;;;18.70;99.90;;;;;;6735393;88;20192;-79
2022/10/23 15:21:58;;;;;;;1999.90;999.90;;;18.60;99.90;;;;;;6734349;88;20188;-83
2022/10/23 15:32:00;;;;;;;1999.90;999.90;;;18.60;99.90;;;;;;6740178;88;20197;-81
2022/10/23 15:42:04;;;;;;;1999.90;999.90;;;18.60;99.90;;;;;;6736420;88;20196;-79
2022/10/23 15:52:04;;;;;;;1999.90;999.90;;;18.60;99.90;;;;;;6735394;88;20178;-80
2022/10/23 16:02:05;;;;;;;1999.90;999.90;;;18.60;99.90;;;;;;6745171;88;20219;-80
2022/10/23 16:12:06;;;;;;;1999.90;999.90;;;18.60;99.90;;;;;;6749569;76;20222;-77
2022/10/23 16:22:07;;;;;;;1999.90;999.90;;;18.60;99.90;;;;;;6735652;88;20194;-78
2022/10/23 16:32:08;;;;;;;1999.90;999.90;;;18.70;99.90;;;;;;6727886;88;21646;-79
2022/10/23 16:42:08;;;;;;;1999.90;999.90;;;18.60;99.90;;;;;;6724097;88;20201;-77
2022/10/23 16:52:09;;;;;;;1999.90;999.90;;;18.10;99.90;;;;;;6729854;88;20170;-76
2022/10/23 17:02:12;;;;;;;1999.90;999.90;;;17.50;99.90;;;;;;6724971;88;20206;-78
2022/10/23 17:12:14;;;;;;;1999.90;999.90;;;17.00;99.90;;;;;;6723614;87;20645;-78
2022/10/23 17:22:15;;;;;;;1999.90;999.90;;;16.70;99.90;;;;;;6721127;88;20205;-76
2022/10/23 17:32:15;;;;;;;1999.90;999.90;;;16.40;99.90;;;;;;6718279;88;20839;-76
2022/10/23 17:42:16;;;;;;;1999.90;999.90;;;16.10;99.90;;;;;;6716233;88;20534;-75
2022/10/23 17:52:17;;;;;;;1999.90;999.90;;;15.70;99.90;;;;;;6720015;88;20202;-76
2022/10/23 18:02:17;;;;;;;1999.90;999.90;;;15.50;99.90;;;;;;6721345;88;20210;-75
2022/10/23 18:12:18;;;;;;;1999.90;999.90;;;15.40;99.90;;;;;;6722965;88;20200;-75
2022/10/23 18:22:18;;;;;;;1999.90;999.90;;;15.40;99.90;;;;;;6718641;88;20219;-76
2022/10/23 18:32:19;;;;;;;1999.90;999.90;;;15.40;99.90;;;;;;6712479;88;20174;-75
2022/10/23 18:42:19;;;;;;;1999.90;999.90;;;15.40;99.90;;;;;;6717127;88;20217;-75
2022/10/23 18:52:20;;;;;;;1999.90;999.90;;;15.40;99.90;;;;;;6717978;88;20198;-75
2022/10/23 19:02:20;;;;;;;1999.90;999.90;;;15.60;99.90;;;;;;6710384;88;20221;-76
2022/10/23 19:12:21;;;;;;;1999.90;999.90;;;15.60;99.90;;;;;;6711678;88;20275;-75
2022/10/23 19:22:23;;;;;;;1999.90;999.90;;;15.90;99.90;;;;;;6714278;88;20204;-77
2022/10/23 19:32:23;;;;;;;1999.90;999.90;;;16.10;99.90;;;;;;6716359;88;20652;-76
2022/10/23 19:42:24;;;;;;;1999.90;999.90;;;16.20;99.90;;;;;;6715379;88;20200;-78
2022/10/23 19:52:24;;;;;;;1999.90;999.90;;;16.20;99.90;;;;;;6710446;88;20205;-76
2022/10/23 20:02:25;;;;;;;1999.90;999.90;;;16.20;99.90;;;;;;6706456;88;20196;-77
2022/10/23 20:12:26;;;;;;;1999.90;999.90;;;16.20;99.90;;;;;;6711939;88;20186;-77
2022/10/23 20:22:27;;;;;;;1999.90;999.90;;;16.10;99.90;;;;;;6712078;88;20194;-76
2022/10/23 20:32:27;;;;;;;1999.90;999.90;;;16.00;99.90;;;;;;6713317;88;20272;-77
2022/10/23 20:42:28;;;;;;;1999.90;999.90;;;16.00;99.90;;;;;;6716841;88;20247;-77
2022/10/23 20:52:30;;;;;;;1999.90;999.90;;;16.10;99.90;;;;;;6708423;88;20302;-76
2022/10/23 21:02:31;;;;;;;1999.90;999.90;;;16.20;99.90;;;;;;6712804;88;20690;-77
2022/10/23 21:12:32;;;;;;;1999.90;999.90;;;16.30;99.90;;;;;;6711181;88;20178;-76
2022/10/23 21:22:32;;;;;;;1999.90;999.90;;;16.30;99.90;;;;;;6712155;88;20178;-76
2022/10/23 21:32:33;;;;;;;1999.90;999.90;;;16.20;99.90;;;;;;6710456;88;20871;-77
2022/10/23 21:42:33;;;;;;;1999.90;999.90;;;16.20;99.90;;;;;;6705022;88;20304;-76
2022/10/23 21:52:34;;;;;;;1999.90;999.90;;;16.20;99.90;;;;;;6703102;88;20193;-77
2022/10/23 22:02:34;;;;;;;1999.90;999.90;;;16.10;99.90;;;;;;6705798;88;20207;-76
2022/10/23 22:12:35;;;;;;;1999.90;999.90;;;16.00;99.90;;;;;;6711207;88;20215;-76
2022/10/23 22:22:36;;;;;;;1999.90;999.90;;;16.00;99.90;;;;;;6715743;76;20277;-74
2022/10/23 22:32:36;;;;;;;1999.90;999.90;;;16.00;99.90;;;;;;6742246;88;20684;-75
2022/10/23 22:42:37;;;;;;;1999.90;999.90;;;16.00;99.90;;;;;;6733499;88;20180;-76
2022/10/23 22:52:38;;;;;;;1999.90;999.90;;;15.90;99.90;;;;;;6729840;88;20203;-76
2022/10/23 23:02:38;;;;;;;1999.90;999.90;;;15.90;99.90;;;;;;6727067;88;20664;-76
2022/10/23 23:12:39;;;;;;;1999.90;999.90;;;15.80;99.90;;;;;;6728876;88;20186;-76
2022/10/23 23:22:39;;;;;;;1999.90;999.90;;;15.90;99.90;;;;;;6734648;88;20177;-76
2022/10/23 23:32:40;;;;;;;1999.90;999.90;;;15.90;99.90;;;;;;6731142;88;20177;-75
2022/10/23 23:42:40;;;;;;;1999.90;999.90;;;15.90;99.90;;;;;;6730460;88;20322;-76
2022/10/23 23:52:41;;;;;;;1999.90;999.90;;;15.90;99.90;;;;;;6729861;88;20193;-76
